sensor_id;sensor_type;location;lat;lon;timestamp;temperature;humidity
7399;DHT22;3740;50.700;7.184;2023-04-25T00:01:22;10.00;99.90
7399;DHT22;3740;50.700;7.184;2023-04-25T00:03:48;9.70;99.90
7399;DHT22;3740;50.700;7.184;2023-04-25T00:06:14;9.50;99.90
7399;DHT22;3740;50.700;7.184;2023-04-25T00:08:40;9.60;99.90
7399;DHT22;3740;50.700;7.184;2023-04-25T00:11:05;9.70;99.90
7399;DHT22;3740;50.700;7.184;2023-04-25T00:13:31;9.70;99.90
7399;DHT22;3740;50.700;7.184;2023-04-25T00:15:56;9.60;99.90
7399;DHT22;3740;50.700;7.184;2023-04-25T00:18:23;9.60;99.90
7399;DHT22;3740;50.700;7.184;2023-04-25T00:20:48;9.30;99.90
7399;DHT22;3740;50.700;7.184;2023-04-25T00:23:17;9.40;99.90
7399;DHT22;3740;50.700;7.184;2023-04-25T00:25:48;9.40;99.90
7399;DHT22;3740;50.700;7.184;2023-04-25T00:28:14;9.40;99.90
7399;DHT22;3740;50.700;7.184;2023-04-25T00:30:40;9.30;99.90
7399;DHT22;3740;50.700;7.184;2023-04-25T00:33:06;9.40;99.90
7399;DHT22;3740;50.700;7.184;2023-04-25T00:35:32;9.30;99.90
7399;DHT22;3740;50.700;7.184;2023-04-25T00:37:58;9.10;99.90
7399;DHT22;3740;50.700;7.184;2023-04-25T00:40:23;9.10;99.90
7399;DHT22;3740;50.700;7.184;2023-04-25T00:42:51;9.30;99.90
7399;DHT22;3740;50.700;7.184;2023-04-25T00:45:18;9.40;99.90
7399;DHT22;3740;50.700;7.184;2023-04-25T00:47:44;9.40;99.90
7399;DHT22;3740;50.700;7.184;2023-04-25T00:50:10;9.40;99.90
7399;DHT22;3740;50.700;7.184;2023-04-25T00:52:38;9.10;99.90
7399;DHT22;3740;50.700;7.184;2023-04-25T00:55:06;9.00;99.90
7399;DHT22;3740;50.700;7.184;2023-04-25T00:57:32;9.10;99.90
7399;DHT22;3740;50.700;7.184;2023-04-25T00:59:58;9.30;99.90
7399;DHT22;3740;50.700;7.184;2023-04-25T01:02:24;9.20;99.90
7399;DHT22;3740;50.700;7.184;2023-04-25T01:04:51;9.30;99.90
7399;DHT22;3740;50.700;7.184;2023-04-25T01:07:16;9.10;99.90
7399;DHT22;3740;50.700;7.184;2023-04-25T01:09:42;8.90;99.90
7399;DHT22;3740;50.700;7.184;2023-04-25T01:12:08;8.90;99.90
7399;DHT22;3740;50.700;7.184;2023-04-25T01:14:33;9.10;99.90
7399;DHT22;3740;50.700;7.184;2023-04-25T01:16:59;9.30;99.90
7399;DHT22;3740;50.700;7.184;2023-04-25T01:19:25;9.40;99.90
7399;DHT22;3740;50.700;7.184;2023-04-25T01:21:51;9.40;99.90
7399;DHT22;3740;50.700;7.184;2023-04-25T01:24:17;9.30;99.90
7399;DHT22;3740;50.700;7.184;2023-04-25T01:26:43;9.10;99.90
7399;DHT22;3740;50.700;7.184;2023-04-25T01:29:17;9.00;99.90
7399;DHT22;3740;50.700;7.184;2023-04-25T01:31:43;9.20;99.90
7399;DHT22;3740;50.700;7.184;2023-04-25T01:34:09;9.40;99.90
7399;DHT22;3740;50.700;7.184;2023-04-25T01:36:34;9.40;99.90
7399;DHT22;3740;50.700;7.184;2023-04-25T01:39:00;9.40;99.90
7399;DHT22;3740;50.700;7.184;2023-04-25T01:41:27;9.20;99.90
7399;DHT22;3740;50.700;7.184;2023-04-25T01:43:52;9.00;99.90
7399;DHT22;3740;50.700;7.184;2023-04-25T01:46:18;9.00;99.90
7399;DHT22;3740;50.700;7.184;2023-04-25T01:48:44;9.20;99.90
7399;DHT22;3740;50.700;7.184;2023-04-25T01:51:10;9.30;99.90
7399;DHT22;3740;50.700;7.184;2023-04-25T01:53:37;9.40;99.90
7399;DHT22;3740;50.700;7.184;2023-04-25T01:56:03;9.30;99.90
7399;DHT22;3740;50.700;7.184;2023-04-25T01:58:28;9.30;99.90
7399;DHT22;3740;50.700;7.184;2023-04-25T02:00:54;9.10;99.90
7399;DHT22;3740;50.700;7.184;2023-04-25T02:03:20;8.90;99.90
7399;DHT22;3740;50.700;7.184;2023-04-25T02:05:45;8.70;99.90
7399;DHT22;3740;50.700;7.184;2023-04-25T02:08:11;8.60;99.90
7399;DHT22;3740;50.700;7.184;2023-04-25T02:10:36;8.70;99.90
7399;DHT22;3740;50.700;7.184;2023-04-25T02:13:02;8.80;99.90
7399;DHT22;3740;50.700;7.184;2023-04-25T02:15:29;8.90;99.90
7399;DHT22;3740;50.700;7.184;2023-04-25T02:17:55;8.80;99.90
7399;DHT22;3740;50.700;7.184;2023-04-25T02:20:22;8.70;99.90
7399;DHT22;3740;50.700;7.184;2023-04-25T02:22:48;8.40;99.90
7399;DHT22;3740;50.700;7.184;2023-04-25T02:25:14;8.30;99.90
7399;DHT22;3740;50.700;7.184;2023-04-25T02:27:41;8.40;99.90
7399;DHT22;3740;50.700;7.184;2023-04-25T02:30:07;8.40;99.90
7399;DHT22;3740;50.700;7.184;2023-04-25T02:32:33;8.40;99.90
7399;DHT22;3740;50.700;7.184;2023-04-25T02:35:02;8.50;99.90
7399;DHT22;3740;50.700;7.184;2023-04-25T02:37:33;8.30;99.90
7399;DHT22;3740;50.700;7.184;2023-04-25T02:40:00;8.10;99.90
7399;DHT22;3740;50.700;7.184;2023-04-25T02:42:26;8.10;99.90
7399;DHT22;3740;50.700;7.184;2023-04-25T02:44:52;8.30;99.90
7399;DHT22;3740;50.700;7.184;2023-04-25T02:47:17;8.50;99.90
7399;DHT22;3740;50.700;7.184;2023-04-25T02:49:43;8.60;99.90
7399;DHT22;3740;50.700;7.184;2023-04-25T02:52:08;8.60;99.90
7399;DHT22;3740;50.700;7.184;2023-04-25T02:54:34;8.50;99.90
7399;DHT22;3740;50.700;7.184;2023-04-25T02:56:59;8.40;99.90
7399;DHT22;3740;50.700;7.184;2023-04-25T02:59:26;8.40;99.90
7399;DHT22;3740;50.700;7.184;2023-04-25T03:01:51;8.60;99.90
7399;DHT22;3740;50.700;7.184;2023-04-25T03:04:17;8.80;99.90
7399;DHT22;3740;50.700;7.184;2023-04-25T03:06:44;8.90;99.90
7399;DHT22;3740;50.700;7.184;2023-04-25T03:09:10;9.00;99.90
7399;DHT22;3740;50.700;7.184;2023-04-25T03:11:38;8.80;99.90
7399;DHT22;3740;50.700;7.184;2023-04-25T03:14:03;8.70;99.90
7399;DHT22;3740;50.700;7.184;2023-04-25T03:16:29;8.60;99.90
7399;DHT22;3740;50.700;7.184;2023-04-25T03:18:56;8.70;99.90
7399;DHT22;3740;50.700;7.184;2023-04-25T03:21:22;8.70;99.90
7399;DHT22;3740;50.700;7.184;2023-04-25T03:23:47;8.90;99.90
7399;DHT22;3740;50.700;7.184;2023-04-25T03:26:13;9.00;99.90
7399;DHT22;3740;50.700;7.184;2023-04-25T03:28:38;8.90;99.90
7399;DHT22;3740;50.700;7.184;2023-04-25T03:31:05;8.60;99.90
7399;DHT22;3740;50.700;7.184;2023-04-25T03:33:31;8.50;99.90
7399;DHT22;3740;50.700;7.184;2023-04-25T03:35:57;8.60;99.90
7399;DHT22;3740;50.700;7.184;2023-04-25T03:38:22;8.70;99.90
7399;DHT22;3740;50.700;7.184;2023-04-25T03:40:48;8.90;99.90
7399;DHT22;3740;50.700;7.184;2023-04-25T03:43:13;9.00;99.90
7399;DHT22;3740;50.700;7.184;2023-04-25T03:45:40;8.90;99.90
7399;DHT22;3740;50.700;7.184;2023-04-25T03:48:05;8.70;99.90
7399;DHT22;3740;50.700;7.184;2023-04-25T03:50:31;8.50;99.90
7399;DHT22;3740;50.700;7.184;2023-04-25T03:52:56;8.50;99.90
7399;DHT22;3740;50.700;7.184;2023-04-25T03:55:22;8.70;99.90
7399;DHT22;3740;50.700;7.184;2023-04-25T03:57:47;8.70;99.90
7399;DHT22;3740;50.700;7.184;2023-04-25T04:00:13;8.80;99.90
7399;DHT22;3740;50.700;7.184;2023-04-25T04:02:39;8.70;99.90
7399;DHT22;3740;50.700;7.184;2023-04-25T04:05:05;8.60;99.90
7399;DHT22;3740;50.700;7.184;2023-04-25T04:07:31;8.50;99.90
7399;DHT22;3740;50.700;7.184;2023-04-25T04:09:58;8.50;99.90
7399;DHT22;3740;50.700;7.184;2023-04-25T04:12:24;8.60;99.90
7399;DHT22;3740;50.700;7.184;2023-04-25T04:14:49;8.70;99.90
7399;DHT22;3740;50.700;7.184;2023-04-25T04:17:15;8.90;99.90
7399;DHT22;3740;50.700;7.184;2023-04-25T04:19:41;8.90;99.90
7399;DHT22;3740;50.700;7.184;2023-04-25T04:22:06;8.80;99.90
7399;DHT22;3740;50.700;7.184;2023-04-25T04:24:32;8.70;99.90
7399;DHT22;3740;50.700;7.184;2023-04-25T04:26:58;8.70;99.90
7399;DHT22;3740;50.700;7.184;2023-04-25T04:29:24;8.90;99.90
7399;DHT22;3740;50.700;7.184;2023-04-25T04:31:51;9.00;99.90
7399;DHT22;3740;50.700;7.184;2023-04-25T04:34:17;9.00;99.90
7399;DHT22;3740;50.700;7.184;2023-04-25T04:36:44;9.00;99.90
7399;DHT22;3740;50.700;7.184;2023-04-25T04:39:12;8.90;99.90
7399;DHT22;3740;50.700;7.184;2023-04-25T04:41:37;8.90;99.90
7399;DHT22;3740;50.700;7.184;2023-04-25T04:44:03;8.90;99.90
7399;DHT22;3740;50.700;7.184;2023-04-25T04:46:29;9.10;99.90
7399;DHT22;3740;50.700;7.184;2023-04-25T04:48:55;9.10;99.90
7399;DHT22;3740;50.700;7.184;2023-04-25T04:51:21;9.30;99.90
7399;DHT22;3740;50.700;7.184;2023-04-25T04:53:47;9.30;99.90
7399;DHT22;3740;50.700;7.184;2023-04-25T04:56:13;9.10;99.90
7399;DHT22;3740;50.700;7.184;2023-04-25T04:58:38;8.90;99.90
7399;DHT22;3740;50.700;7.184;2023-04-25T05:01:04;8.70;99.90
7399;DHT22;3740;50.700;7.184;2023-04-25T05:03:29;8.80;99.90
7399;DHT22;3740;50.700;7.184;2023-04-25T05:05:55;8.70;99.90
7399;DHT22;3740;50.700;7.184;2023-04-25T05:08:20;8.80;99.90
7399;DHT22;3740;50.700;7.184;2023-04-25T05:10:46;8.80;99.90
7399;DHT22;3740;50.700;7.184;2023-04-25T05:13:11;8.50;99.90
7399;DHT22;3740;50.700;7.184;2023-04-25T05:15:37;8.30;99.90
7399;DHT22;3740;50.700;7.184;2023-04-25T05:18:03;8.30;99.90
7399;DHT22;3740;50.700;7.184;2023-04-25T05:20:28;8.50;99.90
7399;DHT22;3740;50.700;7.184;2023-04-25T05:22:54;8.70;99.90
7399;DHT22;3740;50.700;7.184;2023-04-25T05:25:20;8.80;99.90
7399;DHT22;3740;50.700;7.184;2023-04-25T05:27:46;8.80;99.90
7399;DHT22;3740;50.700;7.184;2023-04-25T05:30:11;8.70;99.90
7399;DHT22;3740;50.700;7.184;2023-04-25T05:32:37;8.40;99.90
7399;DHT22;3740;50.700;7.184;2023-04-25T05:35:03;8.40;99.90
7399;DHT22;3740;50.700;7.184;2023-04-25T05:37:28;8.40;99.90
7399;DHT22;3740;50.700;7.184;2023-04-25T05:39:56;8.50;99.90
7399;DHT22;3740;50.700;7.184;2023-04-25T05:42:21;8.70;99.90
7399;DHT22;3740;50.700;7.184;2023-04-25T05:44:47;8.70;99.90
7399;DHT22;3740;50.700;7.184;2023-04-25T05:47:12;8.50;99.90
7399;DHT22;3740;50.700;7.184;2023-04-25T05:49:38;8.40;99.90
7399;DHT22;3740;50.700;7.184;2023-04-25T05:52:04;8.40;99.90
7399;DHT22;3740;50.700;7.184;2023-04-25T05:54:29;8.70;99.90
7399;DHT22;3740;50.700;7.184;2023-04-25T05:56:56;8.70;99.90
7399;DHT22;3740;50.700;7.184;2023-04-25T05:59:22;8.90;99.90
7399;DHT22;3740;50.700;7.184;2023-04-25T06:01:47;8.80;99.90
7399;DHT22;3740;50.700;7.184;2023-04-25T06:04:13;8.70;99.90
7399;DHT22;3740;50.700;7.184;2023-04-25T06:06:38;8.40;99.90
7399;DHT22;3740;50.700;7.184;2023-04-25T06:09:04;8.40;99.90
7399;DHT22;3740;50.700;7.184;2023-04-25T06:11:30;8.30;99.90
7399;DHT22;3740;50.700;7.184;2023-04-25T06:13:55;8.40;99.90
7399;DHT22;3740;50.700;7.184;2023-04-25T06:16:21;8.60;99.90
7399;DHT22;3740;50.700;7.184;2023-04-25T06:18:46;8.90;99.90
7399;DHT22;3740;50.700;7.184;2023-04-25T06:21:12;9.00;99.90
7399;DHT22;3740;50.700;7.184;2023-04-25T06:23:37;9.10;99.90
7399;DHT22;3740;50.700;7.184;2023-04-25T06:26:03;9.00;99.90
7399;DHT22;3740;50.700;7.184;2023-04-25T06:28:29;9.00;99.90
7399;DHT22;3740;50.700;7.184;2023-04-25T06:30:54;9.00;99.90
7399;DHT22;3740;50.700;7.184;2023-04-25T06:33:20;9.20;99.90
7399;DHT22;3740;50.700;7.184;2023-04-25T06:35:46;9.30;99.90
7399;DHT22;3740;50.700;7.184;2023-04-25T06:38:12;9.20;99.90
7399;DHT22;3740;50.700;7.184;2023-04-25T06:40:38;9.10;99.90
7399;DHT22;3740;50.700;7.184;2023-04-25T06:43:03;9.10;99.90
7399;DHT22;3740;50.700;7.184;2023-04-25T06:45:29;9.10;99.90
7399;DHT22;3740;50.700;7.184;2023-04-25T06:47:55;9.10;99.90
7399;DHT22;3740;50.700;7.184;2023-04-25T06:50:21;9.30;99.90
7399;DHT22;3740;50.700;7.184;2023-04-25T06:52:46;9.50;99.90
7399;DHT22;3740;50.700;7.184;2023-04-25T06:55:12;9.50;99.90
7399;DHT22;3740;50.700;7.184;2023-04-25T06:57:38;9.70;99.90
7399;DHT22;3740;50.700;7.184;2023-04-25T07:00:04;9.90;99.90
7399;DHT22;3740;50.700;7.184;2023-04-25T07:02:36;9.80;99.90
7399;DHT22;3740;50.700;7.184;2023-04-25T07:05:02;9.80;99.90
7399;DHT22;3740;50.700;7.184;2023-04-25T07:07:29;9.80;99.90
7399;DHT22;3740;50.700;7.184;2023-04-25T07:09:55;9.40;99.90
7399;DHT22;3740;50.700;7.184;2023-04-25T07:12:21;9.40;99.90
7399;DHT22;3740;50.700;7.184;2023-04-25T07:14:47;9.30;99.90
7399;DHT22;3740;50.700;7.184;2023-04-25T07:17:12;9.60;99.90
7399;DHT22;3740;50.700;7.184;2023-04-25T07:19:38;9.90;99.90
7399;DHT22;3740;50.700;7.184;2023-04-25T07:22:05;9.90;99.90
7399;DHT22;3740;50.700;7.184;2023-04-25T07:24:31;9.80;99.90
7399;DHT22;3740;50.700;7.184;2023-04-25T07:26:56;9.70;99.90
7399;DHT22;3740;50.700;7.184;2023-04-25T07:29:23;9.60;99.90
7399;DHT22;3740;50.700;7.184;2023-04-25T07:31:48;9.60;99.90
7399;DHT22;3740;50.700;7.184;2023-04-25T07:34:14;9.60;99.90
7399;DHT22;3740;50.700;7.184;2023-04-25T07:36:40;9.50;99.90
7399;DHT22;3740;50.700;7.184;2023-04-25T07:39:06;9.60;99.90
7399;DHT22;3740;50.700;7.184;2023-04-25T07:41:32;9.60;99.90
7399;DHT22;3740;50.700;7.184;2023-04-25T07:43:58;9.60;99.90
7399;DHT22;3740;50.700;7.184;2023-04-25T07:46:23;9.50;99.90
7399;DHT22;3740;50.700;7.184;2023-04-25T07:48:49;9.70;99.90
7399;DHT22;3740;50.700;7.184;2023-04-25T07:51:15;9.90;99.90
7399;DHT22;3740;50.700;7.184;2023-04-25T07:53:40;9.90;99.90
7399;DHT22;3740;50.700;7.184;2023-04-25T07:56:06;9.80;99.90
7399;DHT22;3740;50.700;7.184;2023-04-25T07:58:32;9.50;99.90
7399;DHT22;3740;50.700;7.184;2023-04-25T08:00:57;9.20;99.90
7399;DHT22;3740;50.700;7.184;2023-04-25T08:03:23;9.30;99.90
7399;DHT22;3740;50.700;7.184;2023-04-25T08:05:48;9.40;99.90
7399;DHT22;3740;50.700;7.184;2023-04-25T08:08:14;9.30;99.90
7399;DHT22;3740;50.700;7.184;2023-04-25T08:10:39;9.50;99.90
7399;DHT22;3740;50.700;7.184;2023-04-25T08:13:05;9.70;99.90
7399;DHT22;3740;50.700;7.184;2023-04-25T08:15:31;9.50;99.90
7399;DHT22;3740;50.700;7.184;2023-04-25T08:17:56;9.30;99.90
7399;DHT22;3740;50.700;7.184;2023-04-25T08:20:22;9.20;99.90
7399;DHT22;3740;50.700;7.184;2023-04-25T08:22:47;9.40;99.90
7399;DHT22;3740;50.700;7.184;2023-04-25T08:25:14;9.50;99.90
7399;DHT22;3740;50.700;7.184;2023-04-25T08:27:39;9.70;99.90
7399;DHT22;3740;50.700;7.184;2023-04-25T08:30:06;9.80;99.90
7399;DHT22;3740;50.700;7.184;2023-04-25T08:32:33;9.80;99.90
7399;DHT22;3740;50.700;7.184;2023-04-25T08:34:59;9.80;99.90
7399;DHT22;3740;50.700;7.184;2023-04-25T08:37:24;9.50;99.90
7399;DHT22;3740;50.700;7.184;2023-04-25T08:39:51;9.60;99.90
7399;DHT22;3740;50.700;7.184;2023-04-25T08:42:21;9.60;99.90
7399;DHT22;3740;50.700;7.184;2023-04-25T08:44:48;9.70;99.90
7399;DHT22;3740;50.700;7.184;2023-04-25T08:47:14;9.50;99.90
7399;DHT22;3740;50.700;7.184;2023-04-25T08:49:44;9.50;99.90
7399;DHT22;3740;50.700;7.184;2023-04-25T08:52:13;9.30;99.90
7399;DHT22;3740;50.700;7.184;2023-04-25T08:54:42;9.20;99.90
7399;DHT22;3740;50.700;7.184;2023-04-25T08:57:09;9.30;99.90
7399;DHT22;3740;50.700;7.184;2023-04-25T08:59:35;9.30;99.90
7399;DHT22;3740;50.700;7.184;2023-04-25T09:02:03;9.40;99.90
7399;DHT22;3740;50.700;7.184;2023-04-25T09:04:31;9.60;99.90
7399;DHT22;3740;50.700;7.184;2023-04-25T09:06:56;9.80;99.90
7399;DHT22;3740;50.700;7.184;2023-04-25T09:09:23;9.90;99.90
7399;DHT22;3740;50.700;7.184;2023-04-25T09:11:49;10.00;99.90
7399;DHT22;3740;50.700;7.184;2023-04-25T09:14:20;9.80;99.90
7399;DHT22;3740;50.700;7.184;2023-04-25T09:16:58;9.90;99.90
7399;DHT22;3740;50.700;7.184;2023-04-25T09:19:35;9.90;99.90
7399;DHT22;3740;50.700;7.184;2023-04-25T09:22:03;10.20;99.90
7399;DHT22;3740;50.700;7.184;2023-04-25T09:24:38;10.40;99.90
7399;DHT22;3740;50.700;7.184;2023-04-25T09:27:10;10.60;99.90
7399;DHT22;3740;50.700;7.184;2023-04-25T09:29:38;10.80;99.90
7399;DHT22;3740;50.700;7.184;2023-04-25T09:34:42;11.70;99.90
7399;DHT22;3740;50.700;7.184;2023-04-25T09:37:10;11.70;99.90
7399;DHT22;3740;50.700;7.184;2023-04-25T09:39:37;11.80;99.90
7399;DHT22;3740;50.700;7.184;2023-04-25T09:42:03;11.70;99.90
7399;DHT22;3740;50.700;7.184;2023-04-25T09:44:29;11.60;99.90
7399;DHT22;3740;50.700;7.184;2023-04-25T09:46:55;11.10;99.90
7399;DHT22;3740;50.700;7.184;2023-04-25T09:49:20;11.30;99.90
7399;DHT22;3740;50.700;7.184;2023-04-25T09:51:59;11.00;99.90
7399;DHT22;3740;50.700;7.184;2023-04-25T09:54:26;10.80;99.90
7399;DHT22;3740;50.700;7.184;2023-04-25T09:56:53;10.90;99.90
7399;DHT22;3740;50.700;7.184;2023-04-25T09:59:22;10.40;99.90
7399;DHT22;3740;50.700;7.184;2023-04-25T10:01:50;10.40;99.90
7399;DHT22;3740;50.700;7.184;2023-04-25T10:04:24;10.40;99.90
7399;DHT22;3740;50.700;7.184;2023-04-25T10:06:52;10.30;99.90
7399;DHT22;3740;50.700;7.184;2023-04-25T10:09:20;10.60;99.90
7399;DHT22;3740;50.700;7.184;2023-04-25T10:11:46;10.80;99.90
7399;DHT22;3740;50.700;7.184;2023-04-25T10:14:14;10.90;99.90
7399;DHT22;3740;50.700;7.184;2023-04-25T10:16:40;11.00;99.90
7399;DHT22;3740;50.700;7.184;2023-04-25T10:19:07;11.20;99.90
7399;DHT22;3740;50.700;7.184;2023-04-25T10:21:33;11.10;99.90
7399;DHT22;3740;50.700;7.184;2023-04-25T10:24:00;11.20;99.90
7399;DHT22;3740;50.700;7.184;2023-04-25T10:26:26;11.50;99.90
7399;DHT22;3740;50.700;7.184;2023-04-25T10:29:00;11.30;99.30
7399;DHT22;3740;50.700;7.184;2023-04-25T10:31:26;10.90;99.90
7399;DHT22;3740;50.700;7.184;2023-04-25T10:33:53;10.80;99.90
7399;DHT22;3740;50.700;7.184;2023-04-25T10:36:21;10.80;99.90
7399;DHT22;3740;50.700;7.184;2023-04-25T10:38:48;10.90;99.90
7399;DHT22;3740;50.700;7.184;2023-04-25T10:41:17;11.00;99.90
7399;DHT22;3740;50.700;7.184;2023-04-25T10:43:47;11.20;99.90
7399;DHT22;3740;50.700;7.184;2023-04-25T10:46:15;11.20;99.90
7399;DHT22;3740;50.700;7.184;2023-04-25T10:48:58;11.30;99.90
7399;DHT22;3740;50.700;7.184;2023-04-25T10:51:30;11.30;99.90
7399;DHT22;3740;50.700;7.184;2023-04-25T10:54:04;11.50;99.90
7399;DHT22;3740;50.700;7.184;2023-04-25T10:56:31;11.70;99.10
7399;DHT22;3740;50.700;7.184;2023-04-25T10:59:16;11.90;99.90
7399;DHT22;3740;50.700;7.184;2023-04-25T11:01:43;11.90;99.60
7399;DHT22;3740;50.700;7.184;2023-04-25T11:04:33;11.30;98.40
7399;DHT22;3740;50.700;7.184;2023-04-25T11:07:09;11.00;99.30
7399;DHT22;3740;50.700;7.184;2023-04-25T11:09:38;10.90;99.90
7399;DHT22;3740;50.700;7.184;2023-04-25T11:12:04;10.60;99.90
7399;DHT22;3740;50.700;7.184;2023-04-25T11:14:32;10.50;99.90
7399;DHT22;3740;50.700;7.184;2023-04-25T11:16:58;10.70;99.90
7399;DHT22;3740;50.700;7.184;2023-04-25T11:19:25;10.50;99.90
7399;DHT22;3740;50.700;7.184;2023-04-25T11:21:54;10.60;99.90
7399;DHT22;3740;50.700;7.184;2023-04-25T11:24:19;10.60;99.90
7399;DHT22;3740;50.700;7.184;2023-04-25T11:26:50;10.80;99.90
7399;DHT22;3740;50.700;7.184;2023-04-25T11:29:15;10.90;99.90
7399;DHT22;3740;50.700;7.184;2023-04-25T11:31:44;11.10;99.90
7399;DHT22;3740;50.700;7.184;2023-04-25T11:34:10;11.30;99.90
7399;DHT22;3740;50.700;7.184;2023-04-25T11:36:38;11.30;99.90
7399;DHT22;3740;50.700;7.184;2023-04-25T11:39:04;11.00;99.90
7399;DHT22;3740;50.700;7.184;2023-04-25T11:41:31;11.60;99.90
7399;DHT22;3740;50.700;7.184;2023-04-25T11:43:56;12.10;99.90
7399;DHT22;3740;50.700;7.184;2023-04-25T11:46:22;12.80;99.90
7399;DHT22;3740;50.700;7.184;2023-04-25T11:48:47;13.20;99.90
7399;DHT22;3740;50.700;7.184;2023-04-25T11:51:13;12.80;98.10
7399;DHT22;3740;50.700;7.184;2023-04-25T11:53:44;12.10;97.70
7399;DHT22;3740;50.700;7.184;2023-04-25T11:56:10;11.80;99.90
7399;DHT22;3740;50.700;7.184;2023-04-25T11:59:04;11.60;99.90
7399;DHT22;3740;50.700;7.184;2023-04-25T12:01:32;11.20;99.90
7399;DHT22;3740;50.700;7.184;2023-04-25T12:03:58;10.90;99.90
7399;DHT22;3740;50.700;7.184;2023-04-25T12:06:27;10.80;99.90
7399;DHT22;3740;50.700;7.184;2023-04-25T12:09:03;10.60;99.90
7399;DHT22;3740;50.700;7.184;2023-04-25T12:11:32;10.40;99.90
7399;DHT22;3740;50.700;7.184;2023-04-25T12:14:02;10.50;99.90
7399;DHT22;3740;50.700;7.184;2023-04-25T12:16:29;10.50;99.90
7399;DHT22;3740;50.700;7.184;2023-04-25T12:18:55;10.60;99.90
7399;DHT22;3740;50.700;7.184;2023-04-25T12:21:22;10.80;99.90
7399;DHT22;3740;50.700;7.184;2023-04-25T12:23:47;10.70;99.90
7399;DHT22;3740;50.700;7.184;2023-04-25T12:26:13;10.70;99.80
7399;DHT22;3740;50.700;7.184;2023-04-25T12:28:39;10.80;99.90
7399;DHT22;3740;50.700;7.184;2023-04-25T12:31:06;11.10;99.90
7399;DHT22;3740;50.700;7.184;2023-04-25T12:33:33;11.40;99.50
7399;DHT22;3740;50.700;7.184;2023-04-25T12:36:00;11.40;98.50
7399;DHT22;3740;50.700;7.184;2023-04-25T12:38:30;11.50;98.90
7399;DHT22;3740;50.700;7.184;2023-04-25T12:40:57;11.80;98.80
7399;DHT22;3740;50.700;7.184;2023-04-25T12:43:24;12.00;97.10
7399;DHT22;3740;50.700;7.184;2023-04-25T12:45:51;12.00;97.20
7399;DHT22;3740;50.700;7.184;2023-04-25T12:48:17;11.90;96.40
7399;DHT22;3740;50.700;7.184;2023-04-25T12:50:43;11.90;96.40
7399;DHT22;3740;50.700;7.184;2023-04-25T12:53:09;11.80;97.30
7399;DHT22;3740;50.700;7.184;2023-04-25T12:55:35;11.60;97.80
7399;DHT22;3740;50.700;7.184;2023-04-25T12:58:00;11.40;96.80
7399;DHT22;3740;50.700;7.184;2023-04-25T13:00:26;11.30;96.60
7399;DHT22;3740;50.700;7.184;2023-04-25T13:02:52;11.50;96.90
7399;DHT22;3740;50.700;7.184;2023-04-25T13:05:17;12.20;96.70
7399;DHT22;3740;50.700;7.184;2023-04-25T13:07:43;13.40;97.90
7399;DHT22;3740;50.700;7.184;2023-04-25T13:10:08;15.00;92.60
7399;DHT22;3740;50.700;7.184;2023-04-25T13:12:34;15.90;91.60
7399;DHT22;3740;50.700;7.184;2023-04-25T13:15:00;17.20;89.10
7399;DHT22;3740;50.700;7.184;2023-04-25T13:17:26;17.20;80.60
7399;DHT22;3740;50.700;7.184;2023-04-25T13:19:51;16.20;79.90
7399;DHT22;3740;50.700;7.184;2023-04-25T13:22:17;15.80;80.20
7399;DHT22;3740;50.700;7.184;2023-04-25T13:24:44;15.40;85.00
7399;DHT22;3740;50.700;7.184;2023-04-25T13:27:10;15.20;90.10
7399;DHT22;3740;50.700;7.184;2023-04-25T13:29:35;15.80;90.80
7399;DHT22;3740;50.700;7.184;2023-04-25T13:32:03;15.90;90.60
7399;DHT22;3740;50.700;7.184;2023-04-25T13:34:29;14.90;85.00
7399;DHT22;3740;50.700;7.184;2023-04-25T13:36:55;14.10;87.00
7399;DHT22;3740;50.700;7.184;2023-04-25T13:39:20;13.90;91.10
7399;DHT22;3740;50.700;7.184;2023-04-25T13:41:46;13.40;87.60
7399;DHT22;3740;50.700;7.184;2023-04-25T13:44:11;12.90;90.80
7399;DHT22;3740;50.700;7.184;2023-04-25T13:46:37;12.60;92.80
7399;DHT22;3740;50.700;7.184;2023-04-25T13:49:05;12.00;92.20
7399;DHT22;3740;50.700;7.184;2023-04-25T13:51:31;11.50;92.60
7399;DHT22;3740;50.700;7.184;2023-04-25T13:53:57;11.50;95.80
7399;DHT22;3740;50.700;7.184;2023-04-25T13:56:23;11.40;95.00
7399;DHT22;3740;50.700;7.184;2023-04-25T13:58:50;11.40;96.60
7399;DHT22;3740;50.700;7.184;2023-04-25T14:01:15;11.30;96.30
7399;DHT22;3740;50.700;7.184;2023-04-25T14:03:41;11.20;96.30
7399;DHT22;3740;50.700;7.184;2023-04-25T14:06:07;11.00;96.00
7399;DHT22;3740;50.700;7.184;2023-04-25T14:08:34;11.20;95.90
7399;DHT22;3740;50.700;7.184;2023-04-25T14:10:59;11.30;97.10
7399;DHT22;3740;50.700;7.184;2023-04-25T14:13:26;11.50;97.60
7399;DHT22;3740;50.700;7.184;2023-04-25T14:15:52;11.60;96.50
7399;DHT22;3740;50.700;7.184;2023-04-25T14:18:18;11.70;96.00
7399;DHT22;3740;50.700;7.184;2023-04-25T14:20:44;11.50;94.50
7399;DHT22;3740;50.700;7.184;2023-04-25T14:23:10;11.50;97.30
7399;DHT22;3740;50.700;7.184;2023-04-25T14:25:35;11.70;95.30
7399;DHT22;3740;50.700;7.184;2023-04-25T14:28:01;11.80;96.60
7399;DHT22;3740;50.700;7.184;2023-04-25T14:30:27;11.90;95.40
7399;DHT22;3740;50.700;7.184;2023-04-25T14:32:53;11.90;94.00
7399;DHT22;3740;50.700;7.184;2023-04-25T14:35:19;11.80;94.30
7399;DHT22;3740;50.700;7.184;2023-04-25T14:37:45;11.80;96.30
7399;DHT22;3740;50.700;7.184;2023-04-25T14:40:11;11.80;96.60
7399;DHT22;3740;50.700;7.184;2023-04-25T14:42:39;12.10;95.80
7399;DHT22;3740;50.700;7.184;2023-04-25T14:45:06;12.10;96.00
7399;DHT22;3740;50.700;7.184;2023-04-25T14:47:33;12.10;95.30
7399;DHT22;3740;50.700;7.184;2023-04-25T14:49:58;11.90;93.30
7399;DHT22;3740;50.700;7.184;2023-04-25T14:52:24;11.60;93.80
7399;DHT22;3740;50.700;7.184;2023-04-25T14:54:51;11.80;95.90
7399;DHT22;3740;50.700;7.184;2023-04-25T14:57:17;12.10;95.10
7399;DHT22;3740;50.700;7.184;2023-04-25T14:59:42;12.50;95.60
7399;DHT22;3740;50.700;7.184;2023-04-25T15:02:08;12.60;94.20
7399;DHT22;3740;50.700;7.184;2023-04-25T15:04:33;12.70;93.40
7399;DHT22;3740;50.700;7.184;2023-04-25T15:06:59;13.00;92.90
7399;DHT22;3740;50.700;7.184;2023-04-25T15:09:25;12.90;93.00
7399;DHT22;3740;50.700;7.184;2023-04-25T15:11:51;12.80;93.80
7399;DHT22;3740;50.700;7.184;2023-04-25T15:14:17;12.70;94.20
7399;DHT22;3740;50.700;7.184;2023-04-25T15:16:42;12.70;94.30
7399;DHT22;3740;50.700;7.184;2023-04-25T15:19:08;12.70;94.30
7399;DHT22;3740;50.700;7.184;2023-04-25T15:21:33;12.60;92.90
7399;DHT22;3740;50.700;7.184;2023-04-25T15:23:59;12.30;91.90
7399;DHT22;3740;50.700;7.184;2023-04-25T15:26:26;12.10;92.40
7399;DHT22;3740;50.700;7.184;2023-04-25T15:28:52;12.20;93.20
7399;DHT22;3740;50.700;7.184;2023-04-25T15:31:17;12.00;92.90
7399;DHT22;3740;50.700;7.184;2023-04-25T15:33:43;12.00;94.00
7399;DHT22;3740;50.700;7.184;2023-04-25T15:36:09;11.90;93.10
7399;DHT22;3740;50.700;7.184;2023-04-25T15:38:36;11.80;93.10
7399;DHT22;3740;50.700;7.184;2023-04-25T15:41:01;11.80;92.80
7399;DHT22;3740;50.700;7.184;2023-04-25T15:43:27;11.80;92.20
7399;DHT22;3740;50.700;7.184;2023-04-25T15:45:53;11.90;92.20
7399;DHT22;3740;50.700;7.184;2023-04-25T15:48:18;12.00;91.80
7399;DHT22;3740;50.700;7.184;2023-04-25T15:50:44;12.10;92.30
7399;DHT22;3740;50.700;7.184;2023-04-25T15:53:10;12.10;90.40
7399;DHT22;3740;50.700;7.184;2023-04-25T15:55:36;12.20;90.40
7399;DHT22;3740;50.700;7.184;2023-04-25T15:58:02;12.10;90.70
7399;DHT22;3740;50.700;7.184;2023-04-25T16:00:27;11.40;88.20
7399;DHT22;3740;50.700;7.184;2023-04-25T16:02:53;11.40;87.50
7399;DHT22;3740;50.700;7.184;2023-04-25T16:05:19;11.40;86.70
7399;DHT22;3740;50.700;7.184;2023-04-25T16:07:45;11.60;88.60
7399;DHT22;3740;50.700;7.184;2023-04-25T16:10:12;11.80;90.70